Time;durP1;ratioP1;P1;durP2;ratioP2;P2;SDS_P1;SDS_P2;PMS_P1;PMS_P2;Temp;Humidity;BMP_temperature;BMP_pressure;BME280_temperature;BME280_humidity;BME280_pressure;Samples;Min_cycle;Max_cycle;Signal;HPM_P1;HPM_P2
2022/03/14 00:01:35;;;;;;;4.93;4.53;;;;;;;;;;4938653;28;92091;-74
2022/03/14 00:04:02;;;;;;;5.47;4.65;;;;;;;;;;4938113;28;92827;-74
2022/03/14 00:06:28;;;;;;;4.65;4.30;;;;;;;;;;4938071;28;93622;-74
2022/03/14 00:08:57;;;;;;;4.93;4.55;;;;;;;;;;4936431;28;94751;-75
2022/03/14 00:11:26;;;;;;;4.60;4.30;;;;;;;;;;4940681;28;95445;-74
2022/03/14 00:13:55;;;;;;;4.60;4.20;;;;;;;;;;4938002;28;92317;-74
2022/03/14 00:16:31;;;;;;;3.90;3.70;;;;;;;;;;4938071;28;93271;-74
2022/03/14 00:18:58;;;;;;;3.85;3.65;;;;;;;;;;4937694;28;93405;-75
2022/03/14 00:21:25;;;;;;;3.67;3.38;;;;;;;;;;4937765;28;92357;-75
2022/03/14 00:23:52;;;;;;;3.95;3.65;;;;;;;;;;4937439;28;92936;-74
2022/03/14 00:26:21;;;;;;;3.70;3.40;;;;;;;;;;4936825;28;94418;-74
2022/03/14 00:28:49;;;;;;;3.20;3.00;;;;;;;;;;4936865;28;92332;-75
2022/03/14 00:31:16;;;;;;;3.25;3.05;;;;;;;;;;4937607;28;93437;-74
2022/03/14 00:33:42;;;;;;;3.80;3.50;;;;;;;;;;4938791;28;96061;-74
2022/03/14 00:36:09;;;;;;;3.42;3.13;;;;;;;;;;4937313;28;96018;-74
2022/03/14 00:38:36;;;;;;;3.60;3.30;;;;;;;;;;4937573;28;93425;-74
2022/03/14 00:41:03;;;;;;;3.30;3.00;;;;;;;;;;4937663;28;92239;-74
2022/03/14 00:43:30;;;;;;;2.92;2.72;;;;;;;;;;4937769;28;92468;-75
2022/03/14 00:45:56;;;;;;;3.05;2.85;;;;;;;;;;4937489;28;93647;-75
2022/03/14 00:48:23;;;;;;;3.30;2.85;;;;;;;;;;4940548;28;92379;-75
2022/03/14 00:50:50;;;;;;;2.90;2.70;;;;;;;;;;4940946;28;93032;-74
2022/03/14 00:53:16;;;;;;;3.45;2.50;;;;;;;;;;4940561;28;93754;-74
2022/03/14 00:55:43;;;;;;;2.75;2.65;;;;;;;;;;4943868;28;92361;-74
2022/03/14 00:58:12;;;;;;;2.65;2.50;;;;;;;;;;4938815;28;95885;-74
2022/03/14 01:00:38;;;;;;;2.60;2.50;;;;;;;;;;4940766;28;92269;-74
2022/03/14 01:03:05;;;;;;;2.40;2.30;;;;;;;;;;4940439;28;93420;-76
2022/03/14 01:05:31;;;;;;;2.72;2.63;;;;;;;;;;4940217;28;93868;-74
2022/03/14 01:08:02;;;;;;;5.28;2.15;;;;;;;;;;4940316;28;92331;-74
2022/03/14 01:10:29;;;;;;;2.28;2.17;;;;;;;;;;4940220;28;93284;-75
2022/03/14 01:12:57;;;;;;;2.20;2.08;;;;;;;;;;4940328;28;93849;-74
2022/03/14 01:15:23;;;;;;;2.40;2.30;;;;;;;;;;4941003;28;91472;-74
2022/03/14 01:17:50;;;;;;;2.80;2.60;;;;;;;;;;4942996;28;92811;-74
2022/03/14 01:20:16;;;;;;;2.50;2.30;;;;;;;;;;4940597;28;92247;-74
2022/03/14 01:22:43;;;;;;;2.50;2.30;;;;;;;;;;4938888;28;94946;-74
2022/03/14 01:25:10;;;;;;;2.60;2.50;;;;;;;;;;4939020;28;94576;-74
2022/03/14 01:27:37;;;;;;;2.38;2.28;;;;;;;;;;4940539;28;92686;-74
2022/03/14 01:30:03;;;;;;;2.35;2.25;;;;;;;;;;4940331;28;93678;-73
2022/03/14 01:32:30;;;;;;;2.15;2.05;;;;;;;;;;4939772;28;93205;-73
2022/03/14 01:34:56;;;;;;;2.53;2.33;;;;;;;;;;4939949;28;92258;-72
2022/03/14 01:37:22;;;;;;;2.55;2.38;;;;;;;;;;4940209;28;93882;-73
2022/03/14 01:39:49;;;;;;;2.17;2.08;;;;;;;;;;4943703;28;91820;-73
2022/03/14 01:42:19;;;;;;;2.60;2.50;;;;;;;;;;4940257;28;92883;-72
2022/03/14 01:44:46;;;;;;;2.90;2.70;;;;;;;;;;4940003;28;93344;-72
2022/03/14 01:47:14;;;;;;;2.42;2.30;;;;;;;;;;4937650;28;94869;-73
2022/03/14 01:49:43;;;;;;;2.25;2.15;;;;;;;;;;4940012;28;92142;-73
2022/03/14 01:52:09;;;;;;;2.40;2.30;;;;;;;;;;4939658;28;94271;-72
2022/03/14 01:54:37;;;;;;;3.28;2.60;;;;;;;;;;4939891;28;92079;-73
2022/03/14 01:57:06;;;;;;;2.60;2.50;;;;;;;;;;4939201;28;94227;-73
2022/03/14 01:59:33;;;;;;;2.70;2.58;;;;;;;;;;4942302;28;93590;-73
2022/03/14 02:02:10;;;;;;;2.70;2.60;;;;;;;;;;4939647;28;94598;-73
2022/03/14 02:04:39;;;;;;;2.55;2.45;;;;;;;;;;4940214;28;92571;-74
2022/03/14 02:07:05;;;;;;;2.70;2.60;;;;;;;;;;4939794;28;92303;-73
2022/03/14 02:09:31;;;;;;;2.70;2.60;;;;;;;;;;4939796;28;93274;-74
2022/03/14 02:11:58;;;;;;;3.03;2.83;;;;;;;;;;4949061;28;95928;-74
2022/03/14 02:14:25;;;;;;;2.97;2.78;;;;;;;;;;4957622;28;92345;-73
2022/03/14 02:16:52;;;;;;;3.17;2.92;;;;;;;;;;4959133;28;93170;-73
2022/03/14 02:19:18;;;;;;;2.70;2.60;;;;;;;;;;4958927;28;93749;-73
2022/03/14 02:21:45;;;;;;;2.90;2.70;;;;;;;;;;4962097;28;92356;-73
2022/03/14 02:24:14;;;;;;;3.10;3.00;;;;;;;;;;4958828;28;93385;-73
2022/03/14 02:26:41;;;;;;;3.13;2.92;;;;;;;;;;4958575;28;92411;-74
2022/03/14 02:29:08;;;;;;;3.20;3.00;;;;;;;;;;4959538;28;93679;-73
2022/03/14 02:31:36;;;;;;;3.05;2.85;;;;;;;;;;4958646;28;93890;-73
2022/03/14 02:34:07;;;;;;;3.25;2.95;;;;;;;;;;4958774;28;92329;-73
2022/03/14 02:36:40;;;;;;;3.25;3.05;;;;;;;;;;4957238;28;94715;-73
2022/03/14 02:39:06;;;;;;;3.50;3.30;;;;;;;;;;4957777;28;94813;-74
2022/03/14 02:41:33;;;;;;;3.00;2.80;;;;;;;;;;4958558;28;92377;-73
2022/03/14 02:44:01;;;;;;;2.88;2.67;;;;;;;;;;4961519;28;93555;-73
2022/03/14 02:46:28;;;;;;;3.53;3.33;;;;;;;;;;4958594;28;92892;-73
2022/03/14 02:48:55;;;;;;;3.25;3.05;;;;;;;;;;4958147;28;93845;-74
2022/03/14 02:51:22;;;;;;;3.75;3.30;;;;;;;;;;4958621;28;93702;-74
2022/03/14 02:53:48;;;;;;;3.33;3.13;;;;;;;;;;4958514;28;91646;-75
2022/03/14 02:56:15;;;;;;;3.10;2.92;;;;;;;;;;4958491;28;92785;-74
2022/03/14 02:58:41;;;;;;;3.85;3.50;;;;;;;;;;4956982;28;94904;-74
2022/03/14 03:01:08;;;;;;;3.75;3.45;;;;;;;;;;4956823;28;94671;-73
2022/03/14 03:03:35;;;;;;;5.20;3.67;;;;;;;;;;4958456;28;95635;-74
2022/03/14 03:06:03;;;;;;;3.42;3.13;;;;;;;;;;4960076;28;94534;-74
2022/03/14 03:08:29;;;;;;;3.60;3.40;;;;;;;;;;4957494;28;93280;-74
2022/03/14 03:10:59;;;;;;;3.72;3.53;;;;;;;;;;4957331;28;93693;-74
2022/03/14 03:13:27;;;;;;;3.42;3.22;;;;;;;;;;4958005;28;92273;-74
2022/03/14 03:15:54;;;;;;;4.25;3.75;;;;;;;;;;4958170;28;93346;-73
2022/03/14 03:18:21;;;;;;;3.63;3.42;;;;;;;;;;4958424;28;93290;-74
2022/03/14 03:20:47;;;;;;;3.63;3.42;;;;;;;;;;4958111;28;92307;-73
2022/03/14 03:23:14;;;;;;;3.78;3.50;;;;;;;;;;4957633;28;93513;-74
2022/03/14 03:25:40;;;;;;;3.85;3.58;;;;;;;;;;4956243;28;96008;-74
2022/03/14 03:28:06;;;;;;;3.60;3.40;;;;;;;;;;4961574;28;92351;-74
2022/03/14 03:30:33;;;;;;;4.35;4.05;;;;;;;;;;4957514;28;95236;-74
2022/03/14 03:32:59;;;;;;;3.60;3.38;;;;;;;;;;4957829;28;92380;-74
2022/03/14 03:35:25;;;;;;;4.38;4.10;;;;;;;;;;4957686;28;93386;-74
2022/03/14 03:37:52;;;;;;;4.28;3.97;;;;;;;;;;4957738;28;93497;-74
2022/03/14 03:40:18;;;;;;;4.30;4.00;;;;;;;;;;4957880;28;92261;-75
2022/03/14 03:42:48;;;;;;;4.25;3.88;;;;;;;;;;4958308;28;93121;-74
2022/03/14 03:45:14;;;;;;;4.05;3.80;;;;;;;;;;4957697;28;93590;-74
2022/03/14 03:47:41;;;;;;;4.25;3.97;;;;;;;;;;4957547;28;93281;-74
2022/03/14 03:50:07;;;;;;;3.85;3.65;;;;;;;;;;4958816;28;94825;-74
2022/03/14 03:52:34;;;;;;;4.30;4.00;;;;;;;;;;4957800;28;92304;-74
2022/03/14 03:55:00;;;;;;;4.30;4.00;;;;;;;;;;4957685;28;93454;-74
2022/03/14 03:57:27;;;;;;;4.32;4.03;;;;;;;;;;4938683;28;92975;-73
2022/03/14 03:59:53;;;;;;;4.40;4.10;;;;;;;;;;4957614;28;92195;-75
2022/03/14 04:02:19;;;;;;;4.30;4.00;;;;;;;;;;4957953;28;93298;-73
2022/03/14 04:04:47;;;;;;;4.40;4.05;;;;;;;;;;4956877;28;93704;-74
2022/03/14 04:07:19;;;;;;;4.78;4.38;;;;;;;;;;4956927;28;91544;-74
2022/03/14 04:09:46;;;;;;;5.97;5.47;;;;;;;;;;4960493;28;93053;-74
2022/03/14 04:12:13;;;;;;;6.63;6.13;;;;;;;;;;4957705;28;92377;-74
2022/03/14 04:14:40;;;;;;;6.30;5.88;;;;;;;;;;4956013;28;95177;-74
2022/03/14 04:17:07;;;;;;;7.20;6.70;;;;;;;;;;4957036;28;93634;-75
2022/03/14 04:19:38;;;;;;;7.67;7.07;;;;;;;;;;4957649;28;92408;-74
2022/03/14 04:22:04;;;;;;;7.15;6.65;;;;;;;;;;4960346;28;93238;-73
2022/03/14 04:24:31;;;;;;;7.80;7.20;;;;;;;;;;4960692;28;93632;-74
2022/03/14 04:26:57;;;;;;;7.47;6.78;;;;;;;;;;4960910;28;92455;-74
2022/03/14 04:29:24;;;;;;;6.97;6.30;;;;;;;;;;4959973;28;93283;-74
2022/03/14 04:31:50;;;;;;;6.70;6.15;;;;;;;;;;4963703;28;93399;-74
2022/03/14 04:34:16;;;;;;;7.00;6.45;;;;;;;;;;4960591;28;92260;-73
2022/03/14 04:36:43;;;;;;;6.85;6.15;;;;;;;;;;4960425;28;92673;-72
2022/03/14 04:39:09;;;;;;;6.90;6.40;;;;;;;;;;4959025;28;94797;-73
2022/03/14 04:41:37;;;;;;;6.57;6.10;;;;;;;;;;4977464;28;97871;-73
2022/03/14 04:44:04;;;;;;;6.32;5.88;;;;;;;;;;4978242;28;93008;-73
2022/03/14 04:46:30;;;;;;;6.85;6.25;;;;;;;;;;4977554;28;92392;-74
2022/03/14 04:48:57;;;;;;;6.47;6.05;;;;;;;;;;4978209;28;93232;-73
2022/03/14 04:51:24;;;;;;;7.40;6.80;;;;;;;;;;4978002;28;93277;-73
2022/03/14 04:53:51;;;;;;;7.78;7.07;;;;;;;;;;4981309;28;93082;-73
2022/03/14 04:56:17;;;;;;;8.07;7.32;;;;;;;;;;4978335;28;91982;-73
2022/03/14 04:58:43;;;;;;;9.27;8.52;;;;;;;;;;4978306;28;93016;-74
2022/03/14 05:01:10;;;;;;;11.82;10.73;;;;;;;;;;4977546;28;93412;-74
2022/03/14 05:03:36;;;;;;;11.13;10.23;;;;;;;;;;4975531;28;96095;-74
2022/03/14 05:06:03;;;;;;;12.27;11.05;;;;;;;;;;4977389;28;92238;-74
2022/03/14 05:08:29;;;;;;;12.55;11.38;;;;;;;;;;4976845;28;93793;-74
2022/03/14 05:10:57;;;;;;;11.98;10.98;;;;;;;;;;4976782;28;94981;-74
2022/03/14 05:13:23;;;;;;;12.68;11.57;;;;;;;;;;4962898;28;92360;-74
2022/03/14 05:15:50;;;;;;;13.02;11.10;;;;;;;;;;4961897;28;92481;-74
2022/03/14 05:18:16;;;;;;;14.38;13.02;;;;;;;;;;4958101;28;92309;-74
2022/03/14 05:20:42;;;;;;;14.13;12.73;;;;;;;;;;4959853;28;93278;-74
2022/03/14 05:23:09;;;;;;;15.57;13.00;;;;;;;;;;4959067;28;93148;-74
2022/03/14 05:25:35;;;;;;;15.02;13.63;;;;;;;;;;4959476;28;92272;-74
2022/03/14 05:28:02;;;;;;;14.95;13.55;;;;;;;;;;4957578;28;94675;-74
2022/03/14 05:30:28;;;;;;;15.20;13.70;;;;;;;;;;4958784;28;93555;-74
2022/03/14 05:32:55;;;;;;;15.48;13.98;;;;;;;;;;4957887;28;92259;-73
2022/03/14 05:35:21;;;;;;;15.30;13.82;;;;;;;;;;4959013;28;94181;-73
2022/03/14 05:37:47;;;;;;;15.40;13.98;;;;;;;;;;4960641;28;94810;-74
2022/03/14 05:40:17;;;;;;;15.60;14.13;;;;;;;;;;4958900;28;93530;-78
2022/03/14 05:42:47;;;;;;;16.38;14.75;;;;;;;;;;4958433;28;93882;-74
2022/03/14 05:45:14;;;;;;;15.85;14.15;;;;;;;;;;4959341;28;91688;-74
2022/03/14 05:47:40;;;;;;;17.92;15.00;;;;;;;;;;4958566;28;93257;-73
2022/03/14 05:50:07;;;;;;;17.70;15.80;;;;;;;;;;4957948;28;93146;-74
2022/03/14 05:52:33;;;;;;;17.73;15.93;;;;;;;;;;4956881;28;94627;-74
2022/03/14 05:55:00;;;;;;;17.45;15.65;;;;;;;;;;4958604;28;95356;-74
2022/03/14 05:57:27;;;;;;;18.60;15.90;;;;;;;;;;4958249;28;93681;-74
2022/03/14 05:59:54;;;;;;;17.67;15.52;;;;;;;;;;4961461;28;92207;-73
2022/03/14 06:02:21;;;;;;;18.17;15.93;;;;;;;;;;4958518;28;93350;-74
2022/03/14 06:04:48;;;;;;;20.02;17.08;;;;;;;;;;4958807;28;92134;-74
2022/03/14 06:07:15;;;;;;;21.65;18.02;;;;;;;;;;4958599;28;93532;-73
2022/03/14 06:09:41;;;;;;;20.42;18.33;;;;;;;;;;4957803;28;94534;-73
2022/03/14 06:12:08;;;;;;;21.80;18.55;;;;;;;;;;4957572;28;93207;-72
2022/03/14 06:14:34;;;;;;;22.75;18.85;;;;;;;;;;4958050;28;93466;-72
2022/03/14 06:17:00;;;;;;;25.67;19.48;;;;;;;;;;4956475;28;95029;-72
2022/03/14 06:19:27;;;;;;;23.35;18.27;;;;;;;;;;4961321;28;92357;-73
2022/03/14 06:21:53;;;;;;;22.58;18.67;;;;;;;;;;4958073;28;93960;-73
2022/03/14 06:24:20;;;;;;;22.30;17.92;;;;;;;;;;4958220;28;92255;-74
2022/03/14 06:26:47;;;;;;;20.27;17.25;;;;;;;;;;4958201;28;92872;-73
2022/03/14 06:29:13;;;;;;;22.60;16.92;;;;;;;;;;4958033;28;93820;-73
2022/03/14 06:31:41;;;;;;;22.98;17.30;;;;;;;;;;4958164;28;92296;-73
2022/03/14 06:34:15;;;;;;;20.15;17.88;;;;;;;;;;4958379;28;93970;-73
2022/03/14 06:36:42;;;;;;;24.05;16.15;;;;;;;;;;4958024;28;93026;-73
2022/03/14 06:39:09;;;;;;;19.23;16.13;;;;;;;;;;4957493;28;93033;-73
2022/03/14 06:41:39;;;;;;;17.58;14.88;;;;;;;;;;4959141;28;95124;-72
2022/03/14 06:44:05;;;;;;;19.15;15.85;;;;;;;;;;4957880;28;92523;-71
2022/03/14 06:46:31;;;;;;;20.60;15.82;;;;;;;;;;4957657;28;93960;-73
2022/03/14 06:48:58;;;;;;;17.50;15.55;;;;;;;;;;4957428;28;93462;-71
2022/03/14 06:51:26;;;;;;;19.90;16.15;;;;;;;;;;4957908;28;92258;-71
2022/03/14 06:53:52;;;;;;;21.20;16.00;;;;;;;;;;4957484;28;93038;-71
2022/03/14 06:56:19;;;;;;;18.48;14.63;;;;;;;;;;4957786;28;93571;-71
2022/03/14 06:58:45;;;;;;;21.55;16.67;;;;;;;;;;4941042;28;91723;-70
2022/03/14 07:01:12;;;;;;;23.13;17.25;;;;;;;;;;4957721;28;92368;-68
2022/03/14 07:03:39;;;;;;;19.40;17.02;;;;;;;;;;4960431;28;93552;-68
2022/03/14 07:06:10;;;;;;;21.33;16.65;;;;;;;;;;4955831;28;94605;-74
2022/03/14 07:08:36;;;;;;;21.40;16.98;;;;;;;;;;4957529;28;93452;-73
2022/03/14 07:11:03;;;;;;;19.00;16.73;;;;;;;;;;4957543;28;92716;-72
2022/03/14 07:13:29;;;;;;;18.98;16.67;;;;;;;;;;4957309;28;93864;-72
2022/03/14 07:15:56;;;;;;;23.52;17.67;;;;;;;;;;4957195;28;93602;-73
2022/03/14 07:18:23;;;;;;;24.95;18.23;;;;;;;;;;4957472;28;92316;-71
2022/03/14 07:20:49;;;;;;;21.30;18.20;;;;;;;;;;4957013;28;94819;-73
2022/03/14 07:23:15;;;;;;;24.33;19.77;;;;;;;;;;4957635;28;92675;-72
2022/03/14 07:25:42;;;;;;;25.42;20.88;;;;;;;;;;4960495;28;92196;-72
2022/03/14 07:28:09;;;;;;;28.27;21.02;;;;;;;;;;4956970;28;94329;-73
2022/03/14 07:30:36;;;;;;;25.88;21.20;;;;;;;;;;4955844;28;94655;-72
2022/03/14 07:33:02;;;;;;;28.75;20.98;;;;;;;;;;4956954;28;95939;-72
2022/03/14 07:35:29;;;;;;;31.25;23.15;;;;;;;;;;4956590;28;93162;-72
2022/03/14 07:37:56;;;;;;;30.50;22.73;;;;;;;;;;4957150;28;92988;-73
2022/03/14 07:40:23;;;;;;;34.35;23.58;;;;;;;;;;4957174;28;93270;-71
2022/03/14 07:42:51;;;;;;;32.90;23.23;;;;;;;;;;4956972;28;92637;-72
2022/03/14 07:45:21;;;;;;;30.70;22.92;;;;;;;;;;4956894;28;92876;-73
2022/03/14 07:47:47;;;;;;;30.58;22.77;;;;;;;;;;4960227;28;92579;-72
2022/03/14 07:50:15;;;;;;;27.77;22.40;;;;;;;;;;4957020;28;92265;-71
2022/03/14 07:52:42;;;;;;;23.80;20.10;;;;;;;;;;4956930;28;93563;-72
2022/03/14 07:55:09;;;;;;;24.15;20.05;;;;;;;;;;4954553;28;96105;-71
2022/03/14 07:57:36;;;;;;;24.17;20.30;;;;;;;;;;4957103;28;92370;-72
2022/03/14 08:00:05;;;;;;;24.25;20.27;;;;;;;;;;4956637;28;94224;-72
2022/03/14 08:02:40;;;;;;;25.02;19.35;;;;;;;;;;4956203;28;92682;-72
2022/03/14 08:05:07;;;;;;;23.42;19.33;;;;;;;;;;4956706;28;92270;-73
2022/03/14 08:07:34;;;;;;;28.92;21.02;;;;;;;;;;4956184;28;93485;-72
2022/03/14 08:10:01;;;;;;;22.98;19.65;;;;;;;;;;4956487;28;92387;-72
2022/03/14 08:12:27;;;;;;;24.42;19.25;;;;;;;;;;4957052;28;93690;-73
2022/03/14 08:14:55;;;;;;;27.50;21.15;;;;;;;;;;4956481;28;93840;-72
2022/03/14 08:17:21;;;;;;;22.00;19.40;;;;;;;;;;4956680;28;92321;-73
2022/03/14 08:19:48;;;;;;;22.55;19.20;;;;;;;;;;4955274;28;94536;-73
2022/03/14 08:22:14;;;;;;;24.92;19.63;;;;;;;;;;4956002;28;94501;-72
2022/03/14 08:24:40;;;;;;;29.38;20.70;;;;;;;;;;4956616;28;92353;-71
2022/03/14 08:27:07;;;;;;;24.75;20.42;;;;;;;;;;4956471;28;93521;-72
2022/03/14 08:29:33;;;;;;;27.00;19.67;;;;;;;;;;4958177;28;94630;-72
2022/03/14 08:32:00;;;;;;;24.52;20.70;;;;;;;;;;4956098;28;94545;-71
2022/03/14 08:34:27;;;;;;;27.73;20.88;;;;;;;;;;4956081;28;93129;-71
2022/03/14 08:36:54;;;;;;;34.35;20.88;;;;;;;;;;4956933;28;91559;-71
2022/03/14 08:39:20;;;;;;;26.38;20.60;;;;;;;;;;4956540;28;92475;-71
2022/03/14 08:41:48;;;;;;;25.10;19.88;;;;;;;;;;4956031;28;94507;-72
2022/03/14 08:44:15;;;;;;;24.90;19.10;;;;;;;;;;4954527;28;94764;-72
2022/03/14 08:46:41;;;;;;;27.58;20.30;;;;;;;;;;4955273;28;95761;-71
2022/03/14 08:49:08;;;;;;;24.35;19.08;;;;;;;;;;4955784;28;93213;-72
2022/03/14 08:51:34;;;;;;;24.35;19.90;;;;;;;;;;4959681;28;92240;-71
2022/03/14 08:54:01;;;;;;;25.50;20.08;;;;;;;;;;4956066;28;93671;-73
2022/03/14 08:56:27;;;;;;;26.45;20.38;;;;;;;;;;4956414;28;92279;-73
2022/03/14 08:58:53;;;;;;;22.95;19.75;;;;;;;;;;4935073;28;92969;-71
2022/03/14 09:01:20;;;;;;;23.02;19.52;;;;;;;;;;4937320;28;91962;-72
2022/03/14 09:03:46;;;;;;;25.55;19.73;;;;;;;;;;4937788;28;92450;-72
2022/03/14 09:06:13;;;;;;;28.52;20.38;;;;;;;;;;4935718;28;93593;-73
2022/03/14 09:08:40;;;;;;;24.73;20.60;;;;;;;;;;4939789;28;95706;-73
2022/03/14 09:11:07;;;;;;;24.70;21.38;;;;;;;;;;4941765;28;92259;-73
2022/03/14 09:13:35;;;;;;;28.52;19.95;;;;;;;;;;4950197;28;92720;-74
2022/03/14 09:16:02;;;;;;;28.33;20.85;;;;;;;;;;4942687;28;92340;-74
2022/03/14 09:18:31;;;;;;;30.42;21.00;;;;;;;;;;4944580;28;92781;-72
2022/03/14 09:20:58;;;;;;;28.40;20.70;;;;;;;;;;4943692;28;93040;-72
2022/03/14 09:23:26;;;;;;;25.92;20.15;;;;;;;;;;4941954;28;92418;-73
2022/03/14 09:25:52;;;;;;;26.20;19.20;;;;;;;;;;4939870;28;93394;-73
2022/03/14 09:28:20;;;;;;;30.08;20.48;;;;;;;;;;4939437;28;93922;-73
2022/03/14 09:30:47;;;;;;;23.80;18.92;;;;;;;;;;4938715;28;93378;-72
2022/03/14 09:33:13;;;;;;;25.33;18.98;;;;;;;;;;4930765;28;95456;-73
2022/03/14 09:35:40;;;;;;;23.00;17.77;;;;;;;;;;4939705;28;93065;-75
2022/03/14 09:38:06;;;;;;;24.45;17.40;;;;;;;;;;4936606;28;93444;-73
2022/03/14 09:40:33;;;;;;;23.98;17.75;;;;;;;;;;4920389;28;95839;-72
2022/03/14 09:42:59;;;;;;;23.40;17.60;;;;;;;;;;4937012;28;92490;-72
2022/03/14 09:45:27;;;;;;;21.27;17.50;;;;;;;;;;4937356;28;93499;-72
2022/03/14 09:47:57;;;;;;;32.75;17.40;;;;;;;;;;4936733;28;93660;-72
2022/03/14 09:50:26;;;;;;;23.55;17.65;;;;;;;;;;4934732;28;92589;-72
2022/03/14 09:52:53;;;;;;;22.38;17.58;;;;;;;;;;4933436;28;93033;-73
2022/03/14 09:55:20;;;;;;;23.30;16.48;;;;;;;;;;4936284;28;94663;-72
2022/03/14 09:57:47;;;;;;;19.67;16.20;;;;;;;;;;4937020;28;94984;-74
2022/03/14 10:00:13;;;;;;;24.13;16.48;;;;;;;;;;4936711;28;93269;-69
2022/03/14 10:02:41;;;;;;;18.58;16.63;;;;;;;;;;4933780;28;92474;-72
2022/03/14 10:05:08;;;;;;;23.77;15.93;;;;;;;;;;4938368;28;93032;-73
2022/03/14 10:07:34;;;;;;;20.25;15.98;;;;;;;;;;4938315;28;94586;-73
2022/03/14 10:10:04;;;;;;;22.90;15.13;;;;;;;;;;4938374;28;92381;-71
2022/03/14 10:12:32;;;;;;;24.00;16.80;;;;;;;;;;4939849;28;93953;-72
2022/03/14 10:15:03;;;;;;;20.73;16.30;;;;;;;;;;4935250;28;93061;-72
2022/03/14 10:17:31;;;;;;;20.52;15.45;;;;;;;;;;4940581;28;93809;-71
2022/03/14 10:19:58;;;;;;;23.38;16.05;;;;;;;;;;4936918;28;94245;-72
2022/03/14 10:22:35;;;;;;;19.15;14.82;;;;;;;;;;4937799;28;95173;-72
2022/03/14 10:25:04;;;;;;;21.20;16.33;;;;;;;;;;4934926;28;95178;-72
2022/03/14 10:27:33;;;;;;;27.55;15.73;;;;;;;;;;4934134;28;93638;-72
2022/03/14 10:30:02;;;;;;;18.33;14.82;;;;;;;;;;4934751;28;92324;-71
2022/03/14 10:32:31;;;;;;;22.95;13.88;;;;;;;;;;4939993;28;92961;-72
2022/03/14 10:34:59;;;;;;;18.90;13.43;;;;;;;;;;4937776;28;93885;-73
2022/03/14 10:37:28;;;;;;;20.63;13.68;;;;;;;;;;4937950;28;93856;-70
2022/03/14 10:39:59;;;;;;;18.58;12.38;;;;;;;;;;4941524;28;92903;-72
2022/03/14 10:42:28;;;;;;;21.20;13.25;;;;;;;;;;4939896;28;93956;-71
2022/03/14 10:44:55;;;;;;;19.95;13.00;;;;;;;;;;4940395;28;93128;-72
2022/03/14 10:47:23;;;;;;;16.17;12.30;;;;;;;;;;4935213;28;96391;-72
2022/03/14 10:49:50;;;;;;;13.57;11.60;;;;;;;;;;4937887;28;92379;-72
2022/03/14 10:52:18;;;;;;;17.40;11.77;;;;;;;;;;4937565;28;92806;-73
2022/03/14 10:54:48;;;;;;;17.10;11.55;;;;;;;;;;4937661;28;93061;-73
2022/03/14 10:57:23;;;;;;;14.00;11.02;;;;;;;;;;4937911;28;92263;-71
2022/03/14 10:59:52;;;;;;;14.95;11.50;;;;;;;;;;4936194;28;93276;-71
2022/03/14 11:02:22;;;;;;;21.60;12.18;;;;;;;;;;4939888;28;93063;-75
2022/03/14 11:04:52;;;;;;;18.85;12.07;;;;;;;;;;4937166;28;93284;-73
2022/03/14 11:07:28;;;;;;;20.58;12.05;;;;;;;;;;4934042;28;93076;-74
2022/03/14 11:09:59;;;;;;;16.08;11.05;;;;;;;;;;4937911;28;92358;-73
2022/03/14 11:12:26;;;;;;;12.85;11.05;;;;;;;;;;4936399;28;95287;-73
2022/03/14 11:15:00;;;;;;;16.42;10.95;;;;;;;;;;4936984;28;95198;-74
2022/03/14 11:17:28;;;;;;;15.27;11.40;;;;;;;;;;4934011;28;92513;-73
2022/03/14 11:19:56;;;;;;;18.40;12.50;;;;;;;;;;4937829;28;94351;-74
2022/03/14 11:22:23;;;;;;;16.50;11.73;;;;;;;;;;4937877;28;93161;-72
2022/03/14 11:24:51;;;;;;;18.17;11.52;;;;;;;;;;4941086;28;92267;-72
2022/03/14 11:27:26;;;;;;;16.70;11.32;;;;;;;;;;4937889;28;93203;-72
2022/03/14 11:30:00;;;;;;;16.00;10.90;;;;;;;;;;4937706;28;91591;-73
2022/03/14 11:32:27;;;;;;;16.95;11.52;;;;;;;;;;4937546;28;93025;-74
2022/03/14 11:35:01;;;;;;;14.32;11.15;;;;;;;;;;4937728;28;93208;-72
2022/03/14 11:37:29;;;;;;;19.85;10.52;;;;;;;;;;4935693;28;94976;-72
2022/03/14 11:39:56;;;;;;;17.40;10.75;;;;;;;;;;4937700;28;96413;-73
2022/03/14 11:42:23;;;;;;;14.00;9.65;;;;;;;;;;4937439;28;94342;-72
2022/03/14 11:44:50;;;;;;;18.05;10.60;;;;;;;;;;4937646;28;92450;-73
2022/03/14 11:47:21;;;;;;;16.33;9.70;;;;;;;;;;4939558;28;93381;-75
2022/03/14 11:49:48;;;;;;;17.43;9.50;;;;;;;;;;4937517;28;92303;-73
2022/03/14 11:52:19;;;;;;;17.55;10.15;;;;;;;;;;4937885;28;93876;-72
2022/03/14 11:54:50;;;;;;;19.63;10.90;;;;;;;;;;4937029;28;93695;-74
2022/03/14 11:57:41;;;;;;;14.30;9.63;;;;;;;;;;4936651;28;92324;-71
2022/03/14 12:00:24;;;;;;;14.05;9.15;;;;;;;;;;4934777;28;93541;-75
2022/03/14 12:02:52;;;;;;;15.77;10.40;;;;;;;;;;4936901;28;95729;-74
2022/03/14 12:05:22;;;;;;;18.77;10.73;;;;;;;;;;4936792;28;92307;-75
2022/03/14 12:07:48;;;;;;;16.50;10.10;;;;;;;;;;4936843;28;93007;-74
2022/03/14 12:10:25;;;;;;;15.90;9.82;;;;;;;;;;4939884;28;93199;-74
2022/03/14 12:12:53;;;;;;;15.02;9.55;;;;;;;;;;4938911;28;93027;-75
2022/03/14 12:15:38;;;;;;;12.75;9.75;;;;;;;;;;4937219;28;94706;-74
2022/03/14 12:18:23;;;;;;;18.15;9.32;;;;;;;;;;4937388;28;92430;-74
2022/03/14 12:20:49;;;;;;;18.40;8.38;;;;;;;;;;4935890;28;92407;-74
2022/03/14 12:23:29;;;;;;;13.15;8.32;;;;;;;;;;4938952;28;93739;-75
2022/03/14 12:26:11;;;;;;;16.92;8.70;;;;;;;;;;4937548;28;92221;-75
2022/03/14 12:28:37;;;;;;;15.95;8.60;;;;;;;;;;4934744;28;95518;-75
2022/03/14 12:31:04;;;;;;;17.33;9.07;;;;;;;;;;4940167;28;93580;-75
2022/03/14 12:33:35;;;;;;;12.48;8.52;;;;;;;;;;4939765;28;93627;-74
2022/03/14 12:36:23;;;;;;;13.68;8.07;;;;;;;;;;4936653;28;93738;-73
2022/03/14 12:39:05;;;;;;;12.68;7.65;;;;;;;;;;4934324;28;92200;-74
2022/03/14 12:41:32;;;;;;;13.82;7.55;;;;;;;;;;4938654;28;93569;-74
2022/03/14 12:43:58;;;;;;;21.27;8.27;;;;;;;;;;4944181;28;93827;-73
2022/03/14 12:46:25;;;;;;;13.68;6.78;;;;;;;;;;4955627;28;91705;-74
2022/03/14 12:48:54;;;;;;;16.15;7.78;;;;;;;;;;4940218;28;92945;-73
2022/03/14 12:51:24;;;;;;;13.20;7.57;;;;;;;;;;4940208;28;93200;-74
2022/03/14 12:53:52;;;;;;;18.08;8.00;;;;;;;;;;4945439;28;95130;-74
2022/03/14 12:56:20;;;;;;;16.17;6.90;;;;;;;;;;4940124;28;95192;-73
2022/03/14 12:58:51;;;;;;;11.88;6.65;;;;;;;;;;4936249;28;92852;-74
2022/03/14 13:01:18;;;;;;;15.00;7.83;;;;;;;;;;4936626;28;93577;-74
2022/03/14 13:03:46;;;;;;;11.18;7.10;;;;;;;;;;4943983;28;93072;-73
2022/03/14 13:06:13;;;;;;;11.18;6.93;;;;;;;;;;4940488;28;92328;-74
2022/03/14 13:08:46;;;;;;;12.25;5.97;;;;;;;;;;4939790;28;93994;-73
2022/03/14 13:11:16;;;;;;;11.00;6.55;;;;;;;;;;4940087;28;93869;-73
2022/03/14 13:13:44;;;;;;;17.73;7.07;;;;;;;;;;4939936;28;92313;-73
2022/03/14 13:16:13;;;;;;;12.82;7.13;;;;;;;;;;4943259;28;92959;-73
2022/03/14 13:18:41;;;;;;;13.70;7.07;;;;;;;;;;4938740;28;95233;-73
2022/03/14 13:21:10;;;;;;;12.85;7.80;;;;;;;;;;4940337;28;95235;-73
2022/03/14 13:23:36;;;;;;;13.10;8.13;;;;;;;;;;4940445;28;93032;-73
2022/03/14 13:26:03;;;;;;;14.52;7.50;;;;;;;;;;4939260;28;92386;-72
2022/03/14 13:28:31;;;;;;;15.52;7.95;;;;;;;;;;4939995;28;93041;-73
2022/03/14 13:30:59;;;;;;;13.10;8.40;;;;;;;;;;4939642;28;93676;-73
2022/03/14 13:33:27;;;;;;;14.43;9.02;;;;;;;;;;4940649;28;92384;-73
2022/03/14 13:35:55;;;;;;;14.30;8.68;;;;;;;;;;4940128;28;92921;-75
2022/03/14 13:38:30;;;;;;;14.63;8.38;;;;;;;;;;4942707;28;93948;-72
2022/03/14 13:40:57;;;;;;;14.75;8.98;;;;;;;;;;4939980;28;92898;-73
2022/03/14 13:43:24;;;;;;;15.07;7.55;;;;;;;;;;4939393;28;95254;-74
2022/03/14 13:45:51;;;;;;;18.67;8.70;;;;;;;;;;4939508;28;92296;-74
2022/03/14 13:48:21;;;;;;;14.70;8.32;;;;;;;;;;4939172;28;93390;-73
2022/03/14 13:50:49;;;;;;;15.05;7.88;;;;;;;;;;4938987;28;93246;-74
2022/03/14 13:53:20;;;;;;;14.32;8.48;;;;;;;;;;4939249;28;93026;-75
2022/03/14 13:55:53;;;;;;;15.03;8.63;;;;;;;;;;4939231;28;94555;-76
2022/03/14 13:58:26;;;;;;;16.13;8.68;;;;;;;;;;4938048;28;94120;-70
2022/03/14 14:00:53;;;;;;;18.20;9.30;;;;;;;;;;4943009;28;91445;-72
2022/03/14 14:03:20;;;;;;;18.40;8.40;;;;;;;;;;4941130;28;93357;-71
2022/03/14 14:05:47;;;;;;;15.80;8.55;;;;;;;;;;4939027;28;92689;-68
2022/03/14 14:08:28;;;;;;;16.77;9.00;;;;;;;;;;4937789;28;94767;-69
2022/03/14 14:10:57;;;;;;;14.30;8.73;;;;;;;;;;4939206;28;93692;-73
2022/03/14 14:13:24;;;;;;;17.13;7.72;;;;;;;;;;4941663;28;92409;-72
2022/03/14 14:15:51;;;;;;;15.88;7.53;;;;;;;;;;4939624;28;92968;-73
2022/03/14 14:18:19;;;;;;;15.30;8.68;;;;;;;;;;4944443;28;93219;-74
2022/03/14 14:20:45;;;;;;;16.17;7.97;;;;;;;;;;4945103;28;92223;-70
2022/03/14 14:23:12;;;;;;;13.20;7.88;;;;;;;;;;4945357;28;93499;-72
2022/03/14 14:25:59;;;;;;;11.85;7.05;;;;;;;;;;4943771;28;91521;-72
2022/03/14 14:28:25;;;;;;;14.52;7.18;;;;;;;;;;4943125;28;92778;-71
2022/03/14 14:31:00;;;;;;;16.05;8.25;;;;;;;;;;4940900;28;93533;-70
2022/03/14 14:33:35;;;;;;;14.60;8.20;;;;;;;;;;4920887;28;94895;-71